createdAt,value
2023-01-29T00:01:10.603Z,29.13
2023-01-29T00:03:39.834Z,28.25
2023-01-29T00:06:24.352Z,34.97
2023-01-29T00:08:52.449Z,29.80
2023-01-29T00:11:24.125Z,30.77
2023-01-29T00:13:53.077Z,32.72
2023-01-29T00:16:21.055Z,34.03
2023-01-29T00:18:51.473Z,41.63
2023-01-29T00:21:26.649Z,30.83
2023-01-29T00:24:02.865Z,31.00
2023-01-29T00:26:38.023Z,32.75
2023-01-29T00:29:06.851Z,32.58
2023-01-29T00:31:34.906Z,31.48
2023-01-29T00:34:03.749Z,35.10
2023-01-29T00:36:31.633Z,31.85
2023-01-29T00:39:02.793Z,30.17
2023-01-29T00:41:51.666Z,32.28
2023-01-29T00:44:39.723Z,31.98
2023-01-29T00:47:30.990Z,29.33
2023-01-29T00:49:59.639Z,31.60
2023-01-29T00:52:28.226Z,30.55
2023-01-29T00:54:58.258Z,34.17
2023-01-29T00:57:34.571Z,33.17
2023-01-29T01:00:11.548Z,32.03
2023-01-29T01:02:57.842Z,34.25
2023-01-29T01:05:32.468Z,34.38
2023-01-29T01:08:02.462Z,34.13
2023-01-29T01:10:36.930Z,30.55
2023-01-29T01:13:14.233Z,32.42
2023-01-29T01:15:42.003Z,32.97
2023-01-29T01:18:15.557Z,35.55
2023-01-29T01:20:43.733Z,38.67
2023-01-29T01:23:11.407Z,36.00
2023-01-29T01:25:39.108Z,33.30
2023-01-29T01:28:08.425Z,35.75
2023-01-29T01:30:36.074Z,33.28
2023-01-29T01:33:11.092Z,35.85
2023-01-29T01:35:40.988Z,31.77
2023-01-29T01:38:08.676Z,35.42
2023-01-29T01:40:37.878Z,33.83
2023-01-29T01:43:06.321Z,35.53
2023-01-29T01:45:35.508Z,35.53
2023-01-29T01:48:26.722Z,33.95
2023-01-29T01:51:03.566Z,40.08
2023-01-29T01:53:59.080Z,39.05
2023-01-29T01:56:40.917Z,36.20
2023-01-29T01:59:15.127Z,35.10
2023-01-29T02:01:50.252Z,36.28
2023-01-29T02:04:42.677Z,38.17
2023-01-29T02:07:34.397Z,47.83
2023-01-29T02:10:12.969Z,39.80
2023-01-29T02:12:42.198Z,36.58
2023-01-29T02:17:59.605Z,34.35
2023-01-29T02:20:33.538Z,36.95
2023-01-29T02:23:13.648Z,34.63
2023-01-29T02:26:04.353Z,36.05
2023-01-29T02:28:54.662Z,38.90
2023-01-29T02:32:10.314Z,37.97
2023-01-29T02:35:27.515Z,38.17
2023-01-29T02:37:56.320Z,36.58
2023-01-29T02:40:31.521Z,41.50
2023-01-29T02:43:09.099Z,39.55
2023-01-29T02:45:43.975Z,32.85
2023-01-29T02:48:29.740Z,35.75
2023-01-29T02:51:05.894Z,39.75
2023-01-29T02:53:50.489Z,37.10
2023-01-29T02:56:26.804Z,37.03
2023-01-29T02:59:07.585Z,40.50
2023-01-29T03:01:48.721Z,35.22
2023-01-29T03:04:22.691Z,39.70
2023-01-29T03:07:05.131Z,40.33
2023-01-29T03:09:48.509Z,38.38
2023-01-29T03:12:34.309Z,36.10
2023-01-29T03:15:17.687Z,38.63
2023-01-29T03:18:28.353Z,38.80
2023-01-29T03:21:29.230Z,35.15
2023-01-29T03:24:17.797Z,42.72
2023-01-29T03:27:05.029Z,41.05
2023-01-29T03:29:57.331Z,36.65
2023-01-29T03:32:33.009Z,37.78
2023-01-29T03:35:09.733Z,39.53
2023-01-29T03:37:49.196Z,37.95
2023-01-29T03:40:17.768Z,38.75
2023-01-29T03:43:08.097Z,38.50
2023-01-29T03:45:58.366Z,37.75
2023-01-29T03:48:47.705Z,36.25
2023-01-29T03:51:27.474Z,35.28
2023-01-29T03:54:19.038Z,35.75
2023-01-29T03:56:57.969Z,34.42
2023-01-29T03:59:38.946Z,40.40
2023-01-29T04:02:43.427Z,38.90
2023-01-29T04:05:21.057Z,46.83
2023-01-29T04:08:10.595Z,39.83
2023-01-29T04:10:41.598Z,40.00
2023-01-29T04:13:20.215Z,36.70
2023-01-29T04:15:58.177Z,39.80
2023-01-29T04:18:48.459Z,41.70
2023-01-29T04:21:19.074Z,35.70
2023-01-29T04:23:46.813Z,37.17
2023-01-29T04:26:23.125Z,40.70
2023-01-29T04:29:09.957Z,38.75
2023-01-29T04:32:03.968Z,37.83
2023-01-29T04:35:01.122Z,35.80
2023-01-29T04:37:57.115Z,39.72
2023-01-29T04:40:42.253Z,37.33
2023-01-29T04:43:28.159Z,36.22
2023-01-29T04:46:31.809Z,37.10
2023-01-29T04:49:19.096Z,35.25
2023-01-29T04:52:08.644Z,39.47
2023-01-29T04:54:55.652Z,36.58
2023-01-29T04:57:50.521Z,36.83
2023-01-29T05:00:26.116Z,38.10
2023-01-29T05:03:00.684Z,39.05
2023-01-29T05:05:28.902Z,38.92
2023-01-29T05:08:01.170Z,40.13
2023-01-29T05:10:29.625Z,35.53
2023-01-29T05:13:03.837Z,35.70
2023-01-29T05:15:48.743Z,37.60
2023-01-29T05:18:17.836Z,34.83
2023-01-29T05:20:47.044Z,35.08
2023-01-29T05:23:28.645Z,36.92
2023-01-29T05:25:57.587Z,36.80
2023-01-29T05:31:15.364Z,35.35
2023-01-29T05:33:47.141Z,34.28
2023-01-29T05:36:18.500Z,33.85
2023-01-29T05:38:50.624Z,32.42
2023-01-29T05:41:37.048Z,33.03
2023-01-29T05:44:23.624Z,33.78
2023-01-29T05:47:21.489Z,35.30
2023-01-29T05:50:07.012Z,32.58
2023-01-29T05:55:34.298Z,32.33
2023-01-29T05:58:12.427Z,32.25
2023-01-29T06:00:44.317Z,30.45
2023-01-29T06:03:13.384Z,29.98
2023-01-29T06:05:41.667Z,35.35
2023-01-29T06:08:13.739Z,28.63
2023-01-29T06:10:47.862Z,30.00
2023-01-29T06:13:29.699Z,32.88
2023-01-29T06:16:00.948Z,30.73
2023-01-29T06:18:29.328Z,29.00
2023-01-29T06:21:20.216Z,27.73
2023-01-29T06:23:52.206Z,27.75
2023-01-29T06:26:24.920Z,28.00
2023-01-29T06:28:55.646Z,26.65
2023-01-29T06:31:37.379Z,28.80
2023-01-29T06:34:13.532Z,27.90
2023-01-29T06:36:49.676Z,28.58
2023-01-29T06:39:33.015Z,28.80
2023-01-29T06:42:03.394Z,28.08
2023-01-29T06:44:40.998Z,26.90
2023-01-29T06:47:15.567Z,24.35
2023-01-29T06:49:57.139Z,28.20
2023-01-29T06:52:32.985Z,26.73
2023-01-29T06:55:07.201Z,22.30
2023-01-29T06:57:41.717Z,25.30
2023-01-29T07:00:26.541Z,25.63
2023-01-29T07:02:55.558Z,31.67
2023-01-29T07:05:29.473Z,24.05
2023-01-29T07:10:36.196Z,22.50
2023-01-29T07:13:12.847Z,22.50
2023-01-29T07:15:48.805Z,21.27
2023-01-29T07:18:17.159Z,23.58
2023-01-29T07:20:52.260Z,18.40
2023-01-29T07:26:14.924Z,20.45
2023-01-29T07:28:48.259Z,23.50
2023-01-29T07:31:21.577Z,19.08
2023-01-29T07:33:56.764Z,21.95
2023-01-29T07:36:32.457Z,19.25
2023-01-29T07:39:11.242Z,20.20
2023-01-29T07:42:00.855Z,18.85
2023-01-29T07:44:32.534Z,26.30
2023-01-29T07:47:00.640Z,20.65
2023-01-29T07:49:31.895Z,23.55
2023-01-29T07:54:36.982Z,22.85
2023-01-29T07:57:05.258Z,22.90
2023-01-29T07:59:32.910Z,19.67
2023-01-29T08:02:00.628Z,18.83
2023-01-29T08:04:29.345Z,17.75
2023-01-29T08:06:58.566Z,21.10
2023-01-29T08:09:26.312Z,18.15
2023-01-29T08:11:56.802Z,21.42
2023-01-29T08:16:52.523Z,20.77
2023-01-29T08:19:20.307Z,17.67
2023-01-29T08:21:49.737Z,20.05
2023-01-29T08:24:18.899Z,19.95
2023-01-29T08:26:46.716Z,17.92
2023-01-29T08:29:14.472Z,18.40
2023-01-29T08:31:43.198Z,18.88
2023-01-29T08:34:11.278Z,18.83
2023-01-29T08:36:39.452Z,18.15
2023-01-29T08:39:07.165Z,18.25
2023-01-29T08:41:35.111Z,20.08
2023-01-29T08:44:11.027Z,18.00
2023-01-29T08:46:41.065Z,19.35
2023-01-29T08:49:10.556Z,23.17
2023-01-29T08:51:38.547Z,21.52
2023-01-29T08:54:06.380Z,20.73
2023-01-29T08:56:44.256Z,20.90
2023-01-29T08:59:35.470Z,20.75
2023-01-29T09:02:06.974Z,20.80
2023-01-29T09:05:09.069Z,23.00
2023-01-29T09:07:42.907Z,23.98
2023-01-29T09:10:17.762Z,23.35
2023-01-29T09:12:50.638Z,21.92
2023-01-29T09:15:25.753Z,22.50
2023-01-29T09:17:59.277Z,24.58
2023-01-29T09:20:41.109Z,20.65
2023-01-29T09:23:12.229Z,21.45
2023-01-29T09:25:42.771Z,21.75
2023-01-29T09:28:12.387Z,26.88
2023-01-29T09:30:40.427Z,22.08
2023-01-29T09:33:18.337Z,24.27
2023-01-29T09:35:47.142Z,19.85
2023-01-29T09:38:15.019Z,21.20
2023-01-29T09:41:28.356Z,21.35
2023-01-29T09:44:06.160Z,21.35
2023-01-29T09:46:49.238Z,24.65
2023-01-29T09:50:01.122Z,20.52
2023-01-29T09:52:49.152Z,19.38
2023-01-29T09:55:26.396Z,19.67
2023-01-29T09:57:58.967Z,19.70
2023-01-29T10:00:31.821Z,21.90
2023-01-29T10:03:32.767Z,21.95
2023-01-29T10:06:34.861Z,18.60
2023-01-29T10:09:44.082Z,19.30
2023-01-29T10:12:26.194Z,19.92
2023-01-29T10:14:54.065Z,20.95
2023-01-29T10:17:43.471Z,23.40
2023-01-29T10:20:31.692Z,20.42
2023-01-29T10:23:20.563Z,21.75
2023-01-29T10:25:49.820Z,21.97
2023-01-29T10:28:36.966Z,22.35
2023-01-29T10:31:21.632Z,20.42
2023-01-29T10:34:01.955Z,19.42
2023-01-29T10:36:57.261Z,21.90
2023-01-29T10:39:26.603Z,25.05
2023-01-29T10:42:15.875Z,21.80
2023-01-29T10:44:43.439Z,21.90
2023-01-29T10:47:12.246Z,21.20
2023-01-29T10:50:31.258Z,21.55
2023-01-29T10:53:11.602Z,24.08
2023-01-29T10:56:13.945Z,23.90
2023-01-29T10:59:01.451Z,19.73
2023-01-29T11:01:29.256Z,24.98
2023-01-29T11:04:02.845Z,22.58
2023-01-29T11:06:36.301Z,21.98
2023-01-29T11:09:16.043Z,24.13
2023-01-29T11:12:04.616Z,21.33
2023-01-29T11:14:48.954Z,22.00
2023-01-29T11:17:18.093Z,24.38
2023-01-29T11:19:47.920Z,20.42
2023-01-29T11:22:35.471Z,20.87
2023-01-29T11:25:18.530Z,20.27
2023-01-29T11:27:58.632Z,21.23
2023-01-29T11:30:31.039Z,20.92
2023-01-29T11:33:20.618Z,19.90
2023-01-29T11:35:57.014Z,20.85
2023-01-29T11:38:30.721Z,20.90
2023-01-29T11:41:07.298Z,21.83
2023-01-29T11:43:35.075Z,20.83
2023-01-29T11:46:11.467Z,23.10
2023-01-29T11:48:59.417Z,19.55
2023-01-29T11:51:37.853Z,21.13
2023-01-29T11:54:19.822Z,23.65
2023-01-29T11:56:48.429Z,20.80
2023-01-29T11:59:48.643Z,17.67
2023-01-29T12:02:42.109Z,21.90
2023-01-29T12:05:23.195Z,18.23
2023-01-29T12:08:00.127Z,19.48
2023-01-29T12:10:56.750Z,18.85
2023-01-29T12:13:30.623Z,19.25
2023-01-29T12:16:23.649Z,24.45
2023-01-29T12:19:34.312Z,19.05
2023-01-29T12:22:15.435Z,17.98
2023-01-29T12:25:23.050Z,19.38
2023-01-29T12:28:09.632Z,16.98
2023-01-29T12:31:08.823Z,23.05
2023-01-29T12:34:03.631Z,17.67
2023-01-29T12:36:44.061Z,20.52
2023-01-29T12:39:17.016Z,20.02
2023-01-29T12:42:22.466Z,20.30
2023-01-29T12:45:12.399Z,18.65
2023-01-29T12:50:40.434Z,14.10
2023-01-29T12:53:30.909Z,16.48
2023-01-29T12:56:31.358Z,14.93
2023-01-29T12:59:40.361Z,13.57
2023-01-29T13:02:37.272Z,13.00
2023-01-29T13:05:33.678Z,14.10
2023-01-29T13:08:18.482Z,13.18
2023-01-29T13:10:56.561Z,14.02
2023-01-29T13:14:01.695Z,15.02
2023-01-29T13:16:46.699Z,12.23
2023-01-29T13:19:48.512Z,17.00
2023-01-29T13:22:37.289Z,11.85
2023-01-29T13:25:26.533Z,13.82
2023-01-29T13:27:54.476Z,11.60
2023-01-29T13:30:45.067Z,12.35
2023-01-29T13:33:25.426Z,10.10
2023-01-29T13:36:11.589Z,10.98
2023-01-29T13:39:05.669Z,10.68
2023-01-29T13:41:47.862Z,9.70
2023-01-29T13:44:39.398Z,11.57
2023-01-29T13:47:18.830Z,9.15
2023-01-29T13:50:26.390Z,9.75
2023-01-29T13:53:20.307Z,10.05
2023-01-29T13:58:59.069Z,8.93
2023-01-29T14:02:14.998Z,9.63
2023-01-29T14:04:46.558Z,6.50
2023-01-29T14:07:45.542Z,7.05
2023-01-29T14:10:22.809Z,8.93
2023-01-29T14:13:20.259Z,6.45
2023-01-29T14:15:57.163Z,8.43
2023-01-29T14:18:32.716Z,6.60
2023-01-29T14:21:20.242Z,8.07
2023-01-29T14:24:19.633Z,7.60
2023-01-29T14:26:49.563Z,8.57
2023-01-29T14:29:34.739Z,9.03
2023-01-29T14:32:27.024Z,5.90
2023-01-29T14:35:10.773Z,6.88
2023-01-29T14:38:03.164Z,4.95
2023-01-29T14:40:37.364Z,7.15
2023-01-29T14:43:30.472Z,5.28
2023-01-29T14:46:33.377Z,6.32
2023-01-29T14:49:12.257Z,8.15
2023-01-29T14:52:17.497Z,7.47
2023-01-29T14:54:57.052Z,9.00
2023-01-29T14:57:34.036Z,8.57
2023-01-29T15:00:34.151Z,8.40
2023-01-29T15:03:20.865Z,6.82
2023-01-29T15:06:09.383Z,7.00
2023-01-29T15:09:28.798Z,9.20
2023-01-29T15:12:33.924Z,8.85
2023-01-29T15:15:24.099Z,7.15
2023-01-29T15:18:31.746Z,8.35
2023-01-29T15:21:28.006Z,9.93
2023-01-29T15:24:20.132Z,7.15
2023-01-29T15:27:23.894Z,9.82
2023-01-29T15:30:06.530Z,8.88
2023-01-29T15:32:43.200Z,6.43
2023-01-29T15:38:54.179Z,7.53
2023-01-29T15:41:40.365Z,8.52
2023-01-29T15:44:27.462Z,10.90
2023-01-29T15:46:59.671Z,8.02
2023-01-29T15:50:00.717Z,6.53
2023-01-29T15:52:42.163Z,6.72
2023-01-29T15:55:24.256Z,8.88
2023-01-29T15:57:59.064Z,7.07
2023-01-29T16:00:46.612Z,7.90
2023-01-29T16:06:07.480Z,9.57
2023-01-29T16:08:56.518Z,9.15
2023-01-29T16:11:28.584Z,10.25
2023-01-29T16:14:25.659Z,7.25
2023-01-29T16:17:11.352Z,8.13
2023-01-29T16:19:40.762Z,7.25
2023-01-29T16:22:19.639Z,9.57
2023-01-29T16:24:53.237Z,9.98
2023-01-29T16:27:46.039Z,9.90
2023-01-29T16:30:40.282Z,6.57
2023-01-29T16:33:22.531Z,12.60
2023-01-29T16:36:12.929Z,7.75
2023-01-29T16:39:23.862Z,9.68
2023-01-29T16:46:45.959Z,6.72
2023-01-29T16:50:08.964Z,7.68
2023-01-29T16:53:19.350Z,9.80
2023-01-29T16:56:13.428Z,9.07
2023-01-29T17:03:15.947Z,7.50
2023-01-29T17:05:54.338Z,6.18
2023-01-29T17:08:54.371Z,5.47
2023-01-29T17:12:20.839Z,7.75
2023-01-29T17:15:26.984Z,6.78
2023-01-29T17:18:25.581Z,9.05
2023-01-29T17:20:55.299Z,8.20
2023-01-29T17:23:23.542Z,5.47
2023-01-29T17:26:15.636Z,5.72
2023-01-29T17:29:02.716Z,8.77
2023-01-29T17:31:39.273Z,6.32
2023-01-29T17:34:18.340Z,5.20
2023-01-29T17:37:38.660Z,9.82
2023-01-29T17:40:53.933Z,5.47
2023-01-29T17:43:41.045Z,6.22
2023-01-29T17:46:24.071Z,5.53
2023-01-29T17:52:05.145Z,10.70
2023-01-29T18:00:52.769Z,3.90
2023-01-29T18:08:13.361Z,5.75
2023-01-29T18:09:43.989Z,3.97
2023-01-29T18:17:35.480Z,4.00
2023-01-29T18:24:52.117Z,3.50
2023-01-29T18:27:51.625Z,5.53
2023-01-29T18:31:14.678Z,5.63
2023-01-29T18:34:14.470Z,7.68
2023-01-29T18:37:21.148Z,7.20
2023-01-29T18:40:02.757Z,3.22
2023-01-29T18:43:11.177Z,3.95
2023-01-29T18:45:55.423Z,4.93
2023-01-29T18:48:54.302Z,4.13
2023-01-29T18:51:32.415Z,4.60
2023-01-29T18:54:16.722Z,4.35
2023-01-29T18:58:26.096Z,5.38
2023-01-29T19:00:54.791Z,5.68
2023-01-29T19:04:19.139Z,5.70
2023-01-29T19:07:19.876Z,5.45
2023-01-29T19:13:24.063Z,6.60
2023-01-29T19:16:50.874Z,7.28
2023-01-29T19:20:54.891Z,6.65
2023-01-29T19:27:06.006Z,4.55
2023-01-29T19:30:08.665Z,6.95
2023-01-29T19:32:57.051Z,8.40
2023-01-29T19:36:31.280Z,10.35
2023-01-29T19:49:37.705Z,7.78
2023-01-29T19:52:51.084Z,7.05
2023-01-29T20:11:53.665Z,6.40
2023-01-29T20:18:47.516Z,7.80
2023-01-29T20:21:49.755Z,9.25
2023-01-29T20:25:35.563Z,8.40
2023-01-29T20:28:55.820Z,10.18
2023-01-29T20:32:23.125Z,9.90
2023-01-29T20:35:21.152Z,7.20
2023-01-29T20:42:05.583Z,8.93
2023-01-29T20:45:33.818Z,8.50
2023-01-29T20:48:49.858Z,7.93
2023-01-29T20:51:33.732Z,9.27
2023-01-29T20:54:16.301Z,7.72
2023-01-29T20:58:05.887Z,7.32
2023-01-29T21:00:52.383Z,5.20
2023-01-29T21:03:58.273Z,6.90
2023-01-29T21:06:53.559Z,6.25
2023-01-29T21:10:19.465Z,9.95
2023-01-29T21:12:59.555Z,10.68
2023-01-29T21:15:30.975Z,8.70
2023-01-29T21:18:21.900Z,7.88
2023-01-29T21:21:08.539Z,6.07
2023-01-29T21:24:24.024Z,5.32
2023-01-29T21:27:37.511Z,6.38
2023-01-29T21:31:11.638Z,14.13
2023-01-29T21:37:30.269Z,8.07
2023-01-29T21:39:58.607Z,8.02
2023-01-29T21:43:09.612Z,9.38
2023-01-29T21:46:20.187Z,7.32
2023-01-29T21:48:53.431Z,9.90
2023-01-29T21:51:28.157Z,9.02
2023-01-29T21:58:26.365Z,8.90
2023-01-29T22:01:37.731Z,6.93
2023-01-29T22:04:38.844Z,13.35
2023-01-29T22:07:10.151Z,9.80
2023-01-29T22:09:38.690Z,11.57
2023-01-29T22:12:08.042Z,9.13
2023-01-29T22:15:07.366Z,12.93
2023-01-29T22:17:41.350Z,13.13
2023-01-29T22:20:22.227Z,11.60
2023-01-29T22:22:50.195Z,8.85
2023-01-29T22:25:20.226Z,9.32
2023-01-29T22:27:56.950Z,12.88
2023-01-29T22:30:33.134Z,10.73
2023-01-29T22:33:02.091Z,14.45
2023-01-29T22:35:30.964Z,14.75
2023-01-29T22:37:58.813Z,13.00
2023-01-29T22:40:26.945Z,11.75
2023-01-29T22:42:58.371Z,11.07
2023-01-29T22:45:26.204Z,13.02
2023-01-29T22:47:53.964Z,12.68
2023-01-29T22:50:23.183Z,9.88
2023-01-29T22:52:54.027Z,12.18
2023-01-29T22:55:22.516Z,9.10
2023-01-29T22:57:54.226Z,8.88
2023-01-29T23:00:25.398Z,14.40
2023-01-29T23:02:53.363Z,10.82
2023-01-29T23:05:33.327Z,10.95
2023-01-29T23:08:01.046Z,8.40
2023-01-29T23:10:29.948Z,10.63
2023-01-29T23:13:01.042Z,12.38
2023-01-29T23:15:29.349Z,10.93
2023-01-29T23:17:57.330Z,11.95
2023-01-29T23:20:28.559Z,12.25
2023-01-29T23:22:56.865Z,16.58
2023-01-29T23:25:45.979Z,12.13
2023-01-29T23:28:21.136Z,11.18
2023-01-29T23:30:52.170Z,12.45
2023-01-29T23:33:20.392Z,13.13
2023-01-29T23:35:51.513Z,16.52
2023-01-29T23:38:33.697Z,13.93
2023-01-29T23:41:08.964Z,17.83
2023-01-29T23:43:41.476Z,18.55
2023-01-29T23:46:12.903Z,10.55
2023-01-29T23:48:45.849Z,15.25
2023-01-29T23:51:20.011Z,14.55
2023-01-29T23:54:18.028Z,14.25
2023-01-29T23:56:59.428Z,12.25
2023-01-29T23:59:36.575Z,13.73
